Pamelia, New York
Current Conditions -  °F | °C
As of 12:58 AM on Saturday 25 Oct 2014 (Local Time) from KGTB Reporting Station
Clear Clear  
Wind Chill: 44°   Ceiling: Unl
Heat Index: 48°   Visibility: 10mi
Dew Point: 45°   Wind: 8mph
Humidity: 89%   Direction: 250°WSW
Pressure: 29.84"   Gusts: NA
Location:  44.0981°N, 75.8331°W
Report Text: KGTB 250458Z AUTO 25007KT 10SM CLR 09/07 A2984 RMK AO2 SLP107 T00870070 401570064
Loading
Personal Weather Stations






























Interactive Weather Map
Tropical Storm Tracking
New forecast layout! Learn more

10-Day Weather Forecast

Advertisements
Track Severe Weather on mobile